YSNW/NOA METAR and TAF weather

Enter ICAO airport designator
Station Type Date Time Source
YSNW METAR 2021/05/12 23:00 UTC NOAA

YSNW 122300Z 31009KT 9999 FEW017 15/12 Q1014


Station Type Date Time Source
YSNW Decoded METAR 2021/05/12 23:00 UTC NOAA

Nowra Ran Air Station, Australia (YSNW) 34-57S 150-32E 110M
May 12, 2021 - 07:00 PM EDT / 2021.05.12 2300 UTC
Wind: from the NW (310 degrees) at 10 MPH (9 KT):0
Visibility: greater than 7 mile(s):0
Sky conditions: mostly clear
Temperature: 59 F (15 C)
Dew Point: 53 F (12 C)
Relative Humidity: 82%
Pressure (altimeter): 29.94 in. Hg (1014 hPa)
ob: YSNW 122300Z 31009KT 9999 FEW017 15/12 Q1014
cycle: 23

Station Type Date Time Source
YSNW TAF UTC NOAA

Error!

Example: see airport list